Time;durP1;ratioP1;P1;durP2;ratioP2;P2;SDS_P1;SDS_P2;PMS_P1;PMS_P2;Temp;Humidity;BMP_temperature;BMP_pressure;BME280_temperature;BME280_humidity;BME280_pressure;Samples;Min_cycle;Max_cycle;Signal;HPM_P1;HPM_P2
2023/04/24 00:02:46;;;;;;;7.7;4.5;;;;;;;10;59.3;97870;;;;
2023/04/24 00:12:41;;;;;;;10.7;4.8;;;;;;;10;60.1;97860;;;;
2023/04/24 00:23:41;;;;;;;10.7;4.8;;;;;;;9.7;60.1;97860;;;;
2023/04/24 00:34:41;;;;;;;10.7;4.8;;;;;;;9.4;61.4;97860;;;;
2023/04/24 00:44:41;;;;;;;7.1;4.2;;;;;;;9.2;63.5;97850;;;;
2023/04/24 00:55:41;;;;;;;7.1;4.2;;;;;;;9;61.8;97840;;;;
2023/04/24 01:06:41;;;;;;;7.1;4.2;;;;;;;8.6;62.4;97830;;;;
2023/04/24 01:16:42;;;;;;;7.6;3.9;;;;;;;8.5;64.7;97820;;;;
2023/04/24 01:27:41;;;;;;;7.6;3.9;;;;;;;8.6;64.3;97810;;;;
2023/04/24 01:37:41;;;;;;;6.9;3.7;;;;;;;8.7;64;97800;;;;
2023/04/24 01:48:41;;;;;;;6.9;3.7;;;;;;;8.8;63.6;97790;;;;
2023/04/24 01:58:41;;;;;;;6.9;3.7;;;;;;;9.1;63.3;97780;;;;
2023/04/24 02:08:41;;;;;;;7;3.8;;;;;;;9.3;62.5;97770;;;;
2023/04/24 02:18:42;;;;;;;7;3.8;;;;;;;9.2;62.2;97760;;;;
2023/04/24 02:29:41;;;;;;;7;3.8;;;;;;;9.1;61.8;97750;;;;
2023/04/24 02:39:41;;;;;;;7.1;3.8;;;;;;;9.2;62.4;97730;;;;
2023/04/24 02:50:41;;;;;;;7.1;3.8;;;;;;;9.4;62.1;97720;;;;
2023/04/24 03:00:43;;;;;;;7.1;3.8;;;;;;;9.3;61.5;97710;;;;
2023/04/24 03:11:41;;;;;;;8;3.7;;;;;;;9.1;61.9;97720;;;;
2023/04/24 03:22:42;;;;;;;8;3.7;;;;;;;8.9;62;97720;;;;
2023/04/24 03:32:41;;;;;;;8;3.7;;;;;;;8.7;63.1;97720;;;;
2023/04/24 03:43:41;;;;;;;9.9;3.8;;;;;;;9;62.9;97720;;;;
2023/04/24 03:53:41;;;;;;;9.9;3.8;;;;;;;9.1;61.9;97720;;;;
2023/04/24 04:04:41;;;;;;;9.9;3.8;;;;;;;9.3;61.2;97720;;;;
2023/04/24 04:15:41;;;;;;;6.5;4.2;;;;;;;9.5;60.8;97720;;;;
2023/04/24 04:25:41;;;;;;;6.5;4.2;;;;;;;9.7;60.8;97720;;;;
2023/04/24 04:36:42;;;;;;;6.5;4.2;;;;;;;10;60.1;97720;;;;
2023/04/24 04:47:41;;;;;;;6.8;4.3;;;;;;;10.3;61.5;97730;;;;
2023/04/24 04:57:41;;;;;;;6.8;4.3;;;;;;;10.6;62.2;97720;;;;
2023/04/24 05:07:42;;;;;;;9.3;5.3;;;;;;;11;61.6;97720;;;;
2023/04/24 05:17:42;;;;;;;9.3;5.3;;;;;;;11.5;61.6;97710;;;;
2023/04/24 05:28:41;;;;;;;9.3;5.3;;;;;;;12;60.5;97710;;;;
2023/04/24 05:38:41;;;;;;;10.9;5.5;;;;;;;12.6;59.4;97710;;;;
2023/04/24 05:48:42;;;;;;;10.9;5.5;;;;;;;13.3;56.7;97710;;;;
2023/04/24 05:59:42;;;;;;;10.9;5.5;;;;;;;13.8;54.7;97700;;;;
2023/04/24 06:10:41;;;;;;;7.5;4.3;;;;;;;14.3;54.7;97700;;;;
2023/04/24 06:21:42;;;;;;;7.5;4.3;;;;;;;14.9;51.6;97680;;;;
2023/04/24 06:32:42;;;;;;;7.5;4.3;;;;;;;15.4;50.6;97680;;;;
2023/04/24 06:42:42;;;;;;;10.8;5.5;;;;;;;16;49.4;97670;;;;
2023/04/24 06:53:41;;;;;;;10.8;5.5;;;;;;;16.6;48.4;97660;;;;
2023/04/24 07:04:41;;;;;;;10.8;5.5;;;;;;;17.1;46.4;97660;;;;
2023/04/24 07:14:42;;;;;;;7.8;4.5;;;;;;;17.6;44.6;97640;;;;
2023/04/24 07:24:42;;;;;;;7.8;4.5;;;;;;;18;44.6;97640;;;;
2023/04/24 07:34:42;;;;;;;7.8;4.5;;;;;;;18.5;42.4;97630;;;;
2023/04/24 07:45:41;;;;;;;8.7;4.7;;;;;;;19.1;43;97630;;;;
2023/04/24 07:56:42;;;;;;;8.7;4.7;;;;;;;19.6;40.7;97620;;;;
2023/04/24 08:06:41;;;;;;;8.7;4.7;;;;;;;20.1;39.5;97610;;;;
2023/04/24 08:16:41;;;;;;;9.9;4.4;;;;;;;20.3;37.9;97600;;;;
2023/04/24 08:27:42;;;;;;;9.9;4.4;;;;;;;20.8;39.9;97600;;;;
2023/04/24 08:37:42;;;;;;;7.9;4.6;;;;;;;21;38.2;97600;;;;
2023/04/24 08:48:41;;;;;;;7.9;4.6;;;;;;;20.8;36.5;97590;;;;
2023/04/24 08:59:42;;;;;;;7.9;4.6;;;;;;;20.9;37;97580;;;;
2023/04/24 09:09:42;;;;;;;8.6;4.1;;;;;;;20.9;35.3;97580;;;;
2023/04/24 09:20:42;;;;;;;8.6;4.1;;;;;;;21.5;37.1;97560;;;;
2023/04/24 09:30:42;;;;;;;8.6;4.1;;;;;;;21.8;35.3;97550;;;;
2023/04/24 09:41:42;;;;;;;7.1;4.1;;;;;;;21.6;33.4;97540;;;;
2023/04/24 09:51:42;;;;;;;7.1;4.1;;;;;;;21.5;33.6;97540;;;;
2023/04/24 10:02:42;;;;;;;7.1;4.1;;;;;;;21.8;34.2;97520;;;;
2023/04/24 10:12:42;;;;;;;7.3;3.6;;;;;;;22.7;33.4;97520;;;;
2023/04/24 10:23:42;;;;;;;7.3;3.6;;;;;;;23.3;36.2;97510;;;;
2023/04/24 10:34:42;;;;;;;7.3;3.6;;;;;;;23.7;33.7;97500;;;;
2023/04/24 10:45:42;;;;;;;7.3;3.6;;;;;;;23.9;32.5;97500;;;;
2023/04/24 10:55:42;;;;;;;7.3;3.6;;;;;;;24.3;32.5;97490;;;;
2023/04/24 11:05:42;;;;;;;7.3;3.6;;;;;;;24.4;29.1;97490;;;;
2023/04/24 11:16:42;;;;;;;6.3;3.7;;;;;;;24.6;30.1;97490;;;;
2023/04/24 11:26:42;;;;;;;6.3;3.7;;;;;;;25.1;30.2;97480;;;;
2023/04/24 11:36:42;;;;;;;6.3;3.7;;;;;;;24.5;31.1;97480;;;;
2023/04/24 11:47:42;;;;;;;5;3.1;;;;;;;25;26.6;97470;;;;
2023/04/24 11:57:44;;;;;;;5;3.1;;;;;;;25.4;27.6;97450;;;;
2023/04/24 12:07:42;;;;;;;6;3.4;;;;;;;25.1;27.1;97450;;;;
2023/04/24 12:17:42;;;;;;;6;3.4;;;;;;;24;34.1;97440;;;;
2023/04/24 12:27:42;;;;;;;6;3.4;;;;;;;23;37.3;97460;;;;
2023/04/24 12:37:42;;;;;;;11.2;5.8;;;;;;;22.5;38.3;97460;;;;
2023/04/24 12:48:42;;;;;;;11.2;5.8;;;;;;;21.9;40.1;97460;;;;
2023/04/24 12:58:42;;;;;;;11.2;5.8;;;;;;;21.6;41.3;97470;;;;
2023/04/24 13:09:42;;;;;;;7.7;4.3;;;;;;;21.4;41.9;97470;;;;
2023/04/24 13:19:42;;;;;;;7.7;4.3;;;;;;;21.1;42.1;97470;;;;
2023/04/24 13:29:42;;;;;;;7.7;4.3;;;;;;;20.2;42.5;97480;;;;
2023/04/24 13:40:42;;;;;;;6.5;4;;;;;;;19.3;44.9;97480;;;;
2023/04/24 13:50:42;;;;;;;6.5;4;;;;;;;19.2;45.8;97480;;;;
2023/04/24 14:01:42;;;;;;;6.5;4;;;;;;;19.3;46;97490;;;;
2023/04/24 14:12:42;;;;;;;10.5;4;;;;;;;19.3;48.1;97500;;;;
2023/04/24 14:23:42;;;;;;;10.5;4;;;;;;;18.7;46.5;97500;;;;
2023/04/24 14:33:42;;;;;;;10.5;4;;;;;;;18.2;49.5;97500;;;;
2023/04/24 14:44:42;;;;;;;5.8;2.8;;;;;;;17.9;51;97510;;;;
2023/04/24 14:55:42;;;;;;;5.8;2.8;;;;;;;17.5;52.2;97520;;;;
2023/04/24 15:05:42;;;;;;;5.8;2.8;;;;;;;17.5;52;97520;;;;
2023/04/24 15:15:42;;;;;;;5.9;3.5;;;;;;;17.6;52.7;97520;;;;
2023/04/24 15:26:42;;;;;;;5.9;3.5;;;;;;;17.6;52.9;97520;;;;
2023/04/24 15:37:42;;;;;;;5.1;2.6;;;;;;;17;55.3;97520;;;;
2023/04/24 15:47:42;;;;;;;5.1;2.6;;;;;;;16.4;56.4;97530;;;;
2023/04/24 15:57:42;;;;;;;5.1;2.6;;;;;;;16.2;57.1;97530;;;;
2023/04/24 16:08:42;;;;;;;3.7;2.1;;;;;;;15.9;59.3;97530;;;;
2023/04/24 16:19:42;;;;;;;3.7;2.1;;;;;;;15.7;59.6;97530;;;;
2023/04/24 16:30:42;;;;;;;3.7;2.1;;;;;;;15.5;60.5;97530;;;;
2023/04/24 16:40:42;;;;;;;5.5;2.7;;;;;;;15.4;61.1;97520;;;;
2023/04/24 16:51:42;;;;;;;5.5;2.7;;;;;;;15.2;63.2;97520;;;;
2023/04/24 17:01:42;;;;;;;5.5;2.7;;;;;;;14.9;64;97520;;;;
2023/04/24 17:12:42;;;;;;;7.2;3.7;;;;;;;14.6;64.7;97520;;;;
2023/04/24 17:22:42;;;;;;;7.2;3.7;;;;;;;14.5;66;97530;;;;
2023/04/24 17:33:42;;;;;;;7.2;3.7;;;;;;;14.2;65.9;97530;;;;
2023/04/24 17:44:42;;;;;;;8.1;5;;;;;;;14;66.3;97530;;;;
2023/04/24 17:54:42;;;;;;;8.1;5;;;;;;;13.8;67.1;97530;;;;
2023/04/24 18:05:42;;;;;;;8.1;5;;;;;;;13.6;68;97540;;;;
2023/04/24 18:15:42;;;;;;;9.4;6;;;;;;;13.5;67.3;97540;;;;
2023/04/24 18:26:42;;;;;;;9.4;6;;;;;;;13.4;67.5;97550;;;;
2023/04/24 18:36:42;;;;;;;9.4;6;;;;;;;13.3;68;97560;;;;
2023/04/24 18:46:42;;;;;;;10.9;7.9;;;;;;;13.3;68.6;97570;;;;
2023/04/24 18:57:42;;;;;;;10.9;7.9;;;;;;;13.2;69.3;97570;;;;
2023/04/24 19:07:42;;;;;;;16.7;10.5;;;;;;;13.2;70.1;97570;;;;
2023/04/24 19:17:42;;;;;;;16.7;10.5;;;;;;;13.1;70.7;97570;;;;
2023/04/24 19:28:42;;;;;;;16.7;10.5;;;;;;;13.1;71.5;97570;;;;
2023/04/24 19:38:42;;;;;;;14.7;10.5;;;;;;;13.1;71.6;97570;;;;
2023/04/24 19:48:42;;;;;;;14.7;10.5;;;;;;;13.1;71.1;97560;;;;
2023/04/24 19:59:42;;;;;;;14.7;10.5;;;;;;;13;71.6;97560;;;;
2023/04/24 20:09:42;;;;;;;12.2;8.2;;;;;;;13;71.4;97560;;;;
2023/04/24 20:19:42;;;;;;;12.2;8.2;;;;;;;13;72.7;97560;;;;
2023/04/24 20:30:42;;;;;;;12.2;8.2;;;;;;;13;72.7;97570;;;;
2023/04/24 20:41:42;;;;;;;10.5;6.8;;;;;;;13;73;97570;;;;
2023/04/24 20:51:42;;;;;;;10.5;6.8;;;;;;;13;73.3;97570;;;;
2023/04/24 21:02:42;;;;;;;10.5;6.8;;;;;;;12.9;74;97570;;;;
2023/04/24 21:12:42;;;;;;;10.5;7.5;;;;;;;12.8;74.7;97570;;;;
2023/04/24 21:22:42;;;;;;;10.5;7.5;;;;;;;12.8;75.8;97570;;;;
2023/04/24 21:32:42;;;;;;;10.5;7.5;;;;;;;12.8;77.1;97570;;;;
2023/04/24 21:43:42;;;;;;;18;12.3;;;;;;;12.7;79.1;97570;;;;
2023/04/24 21:53:42;;;;;;;18;12.3;;;;;;;12.7;79.9;97570;;;;
2023/04/24 22:03:42;;;;;;;18;12.3;;;;;;;12.7;81.9;97560;;;;
2023/04/24 22:13:42;;;;;;;21.1;16.6;;;;;;;12.6;83.2;97560;;;;
2023/04/24 22:24:42;;;;;;;21.1;16.6;;;;;;;12.6;83.1;97560;;;;
2023/04/24 22:35:42;;;;;;;21.1;16.6;;;;;;;12.5;83.8;97560;;;;
2023/04/24 22:46:42;;;;;;;17.4;13.6;;;;;;;12.2;85;97550;;;;
2023/04/24 22:56:42;;;;;;;17.4;13.6;;;;;;;12.1;85.7;97550;;;;
2023/04/24 23:06:42;;;;;;;11.6;7.5;;;;;;;12.2;85.6;97540;;;;
2023/04/24 23:17:42;;;;;;;11.6;7.5;;;;;;;12;86.6;97530;;;;
2023/04/24 23:28:42;;;;;;;11.6;7.5;;;;;;;12;86.9;97530;;;;
2023/04/24 23:39:43;;;;;;;11.8;9.3;;;;;;;11.7;88.2;97530;;;;
2023/04/24 23:50:42;;;;;;;11.8;9.3;;;;;;;11.3;86.8;97530;;;;
